Wilson Clyde — 8PRV — position and weather

sailwx.info

Track history (hours):
 
Tides and Currents Weather Stations Pressure Air Temp Water Temp Dewpoint Dewpoint Depression Visibility Wind Speed Wind Dir Waves Ship Positions

Wilson Clyde

Last reported at 2017-Oct-18 20:30 UTC. Time now 2017-Oct-18 20:38 UTC.
Position N 53°05' E 004°13'.

Length 100 m; draft 5.9 m.

Type: Cargo ship. MMSI: 314187000.

Date/timePositionNaut miles runAvg speedWind from/ knotsBaromVisibWave heightAir tempDewpointWater temp
2017-Oct-18 20:30N 53°05' E 004°13'1411.2
2017-Oct-18 19:16N 53°16' E 004°27'411.0
2017-Oct-18 18:53N 53°20' E 004°30'1510.6
2017-Oct-18 17:29N 53°34' E 004°38'1910.6
2017-Oct-18 15:43N 53°51' E 004°49'277 7.4
2017-Oct-17 02:13N 58°28' E 005°02'2 8.8
2017-Oct-17 02:00N 58°30' E 005°01'4 8.4
2017-Oct-17 01:30N 58°34' E 004°59'4 7.9
2017-Oct-17 01:00N 58°38' E 004°58'3 6.7
2017-Oct-17 00:31N 58°41' E 004°56'3 5.6
2017-Oct-17 00:01N 58°44' E 004°55'3 5.3
2017-Oct-16 23:30N 58°46' E 004°54'3 6.3
2017-Oct-16 23:01N 58°49' E 004°53'3 6.8
2017-Oct-16 22:31N 58°53' E 004°52'4 8.0
2017-Oct-16 22:01N 58°56' E 004°50'5 9.0
2017-Oct-16 21:31N 59°01' E 004°48'5 9.3
2017-Oct-16 21:00N 59°05' E 004°46'74 9.1
2017-Oct-16 12:51N 60°19' E 004°27'3 8.8
2017-Oct-16 12:31N 60°22' E 004°26'17 5.4
2017-Oct-16 09:19N 60°39' E 004°20'2 7.4
2017-Oct-16 09:00N 60°41' E 004°20'4 7.3
2017-Oct-16 08:30N 60°45' E 004°20'4 7.2
2017-Oct-16 08:00N 60°49' E 004°19'4 7.1
2017-Oct-16 07:30N 60°52' E 004°18'3 6.9
2017-Oct-16 07:00N 60°56' E 004°17'3 6.8
2017-Oct-16 06:30N 60°59' E 004°17'3 6.7
2017-Oct-16 06:00N 61°02' E 004°17'3 6.4
2017-Oct-16 05:30N 61°05' E 004°18'3 6.3
2017-Oct-16 05:00N 61°09' E 004°18'3 6.2
2017-Oct-16 04:30N 61°12' E 004°18'3 6.3
2017-Oct-16 04:00N 61°15' E 004°19'3 6.5
2017-Oct-16 03:30N 61°18' E 004°18'4 7.3
2017-Oct-16 03:00N 61°22' E 004°19'15 7.6
2017-Oct-16 01:02N 61°37' E 004°21'0 6.7
2017-Oct-16 01:00N 61°37' E 004°22'3 6.1
2017-Oct-16 00:30N 61°40' E 004°24'3 5.5
2017-Oct-16 00:00N 61°42' E 004°26'3 5.2
2017-Oct-15 23:30N 61°45' E 004°28'2 4.6
2017-Oct-15 23:00N 61°47' E 004°30'2 3.9
2017-Oct-15 22:30N 61°49' E 004°32'2 3.3
2017-Oct-15 22:00N 61°50' E 004°33'2 3.2
2017-Oct-15 21:31N 61°52' E 004°34'1 2.7
2017-Oct-15 21:00N 61°53' E 004°35'1 2.7
2017-Oct-15 20:30N 61°54' E 004°36'1 2.9
2017-Oct-15 20:00N 61°55' E 004°37'2 3.3
2017-Oct-15 19:30N 61°57' E 004°39'2 3.8
2017-Oct-15 19:00N 61°59' E 004°40'2 4.1
2017-Oct-15 18:30N 62°01' E 004°42'2 4.1
2017-Oct-15 18:00N 62°02' E 004°44'2 4.0
2017-Oct-15 17:30N 62°04' E 004°45'2 3.8
2017-Oct-15 17:00N 62°06' E 004°47'2 3.6
2017-Oct-15 16:30N 62°07' E 004°49'1 2.8
2017-Oct-15 16:00N 62°09' E 004°51'1 2.9
2017-Oct-15 15:30N 62°10' E 004°53'1 2.7
2017-Oct-15 15:00N 62°11' E 004°54'3 3.3
2017-Oct-15 14:00N 62°14' E 004°58'2 4.0
2017-Oct-15 13:29N 62°15' E 005°01'3 5.4
2017-Oct-15 13:00N 62°18' E 005°04'3 6.7
2017-Oct-15 12:30N 62°21' E 005°07'4 7.1
2017-Oct-15 12:00N 62°24' E 005°11'4 7.0
2017-Oct-15 11:30N 62°27' E 005°15'4 7.4
2017-Oct-15 11:00N 62°30' E 005°20'4 7.3
2017-Oct-15 10:30N 62°32' E 005°25'4 7.4
2017-Oct-15 10:00N 62°35' E 005°31'4 7.1
2017-Oct-15 09:30N 62°37' E 005°36'3 6.7
2017-Oct-15 09:00N 62°40' E 005°42'3 6.1
2017-Oct-15 08:30N 62°42' E 005°46'3 5.1
2017-Oct-15 08:01N 62°43' E 005°50'3 5.9
2017-Oct-15 07:30N 62°46' E 005°55'3 5.6
2017-Oct-15 07:00N 62°48' E 005°59'3 4.9
2017-Oct-15 06:30N 62°49' E 006°03'2 5.1
2017-Oct-15 06:00N 62°51' E 006°07'2 4.8
2017-Oct-15 05:30N 62°53' E 006°11'2 4.8
2017-Oct-15 05:00N 62°55' E 006°14'2 4.9
2017-Oct-15 04:30N 62°56' E 006°18'2 5.0
2017-Oct-15 04:01N 62°58' E 006°22'2 4.4
2017-Oct-15 03:30N 62°59' E 006°26'2 4.4
2017-Oct-15 03:01N 63°01' E 006°29'2 3.8
2017-Oct-15 02:30N 63°02' E 006°32'2 3.3
2017-Oct-15 02:00N 63°03' E 006°35'2 3.5
2017-Oct-15 01:30N 63°05' E 006°37'2 3.2
2017-Oct-15 01:01N 63°06' E 006°40'2 3.2
2017-Oct-15 00:30N 63°07' E 006°42'2 3.1
2017-Oct-15 00:00N 63°08' E 006°45'1 2.8
2017-Oct-14 23:30N 63°09' E 006°47'2 3.6
2017-Oct-14 23:00N 63°10' E 006°50'2 3.3
2017-Oct-14 22:30N 63°12' E 006°52'1 3.0
2017-Oct-14 22:01N 63°13' E 006°54'2 3.0
2017-Oct-14 21:30N 63°14' E 006°56'1 2.3
2017-Oct-14 21:00N 63°15' E 006°58'1 2.6
2017-Oct-14 20:30N 63°16' E 006°60'1 2.3
2017-Oct-14 20:00N 63°17' E 007°01'1 2.3
2017-Oct-14 19:30N 63°18' E 007°03'1 2.5
2017-Oct-14 19:00N 63°18' E 007°05'2 3.1
2017-Oct-14 18:30N 63°20' E 007°07'2 3.5
2017-Oct-14 18:00N 63°21' E 007°10'2 3.1
2017-Oct-14 17:30N 63°22' E 007°12'1 2.9
2017-Oct-14 17:00N 63°23' E 007°14'1 2.5
2017-Oct-14 16:30N 63°24' E 007°16'1 2.4
2017-Oct-14 16:00N 63°25' E 007°18'1 2.4
2017-Oct-14 15:30N 63°26' E 007°20'1 2.4
2017-Oct-14 15:00N 63°27' E 007°21'1 2.5
2017-Oct-14 14:30N 63°28' E 007°23'1 2.5
2017-Oct-14 14:00N 63°29' E 007°25'1 2.5
2017-Oct-14 13:30N 63°30' E 007°27'1 2.8
2017-Oct-14 13:00N 63°31' E 007°29'1 2.3
2017-Oct-14 12:30N 63°32' E 007°30'1 2.7
2017-Oct-14 12:00N 63°33' E 007°32'1 2.5
2017-Oct-14 11:30N 63°34' E 007°34'1 2.6
2017-Oct-14 11:00N 63°35' E 007°36'2 3.7
2017-Oct-14 10:30N 63°36' E 007°39'2 3.4
2017-Oct-14 10:00N 63°37' E 007°41'1 3.0
2017-Oct-14 09:30N 63°39' E 007°43'1 2.6
2017-Oct-14 09:00N 63°39' E 007°45'2 3.4
2017-Oct-14 08:30N 63°41' E 007°48'2 3.9
2017-Oct-14 08:00N 63°42' E 007°50'2 3.9
2017-Oct-14 07:30N 63°44' E 007°53'2 3.9
2017-Oct-14 07:00N 63°46' E 007°56'2 3.5
2017-Oct-14 06:30N 63°47' E 007°59'2 4.1
2017-Oct-14 06:00N 63°48' E 008°02'2 3.4
2017-Oct-14 05:30N 63°49' E 008°04'2 4.0
2017-Oct-14 05:00N 63°51' E 008°07'2 3.6
2017-Oct-14 04:30N 63°52' E 008°10'2 3.7
2017-Oct-14 04:01N 63°54' E 008°13'2 3.7
2017-Oct-14 03:30N 63°55' E 008°15'2 4.4
2017-Oct-14 03:00N 63°57' E 008°19'2 4.5
2017-Oct-14 02:30N 63°58' E 008°23'3 5.1
2017-Oct-14 02:00N 63°60' E 008°27'78 6.9
2017-Oct-13 14:39N 64°60' E 010°25'1 7.7
2017-Oct-13 14:30N 65°01' E 010°26'4 7.8
2017-Oct-13 14:00N 65°04' E 010°29'4 7.7
2017-Oct-13 13:30N 65°08' E 010°33'4 7.9
2017-Oct-13 12:59N 65°12' E 010°36'4 7.5
2017-Oct-13 12:30N 65°15' E 010°40'4 7.7
2017-Oct-13 12:01N 65°19' E 010°43'4 7.7
2017-Oct-13 11:30N 65°22' E 010°47'4 7.6
2017-Oct-13 11:00N 65°26' E 010°51'4 7.5
2017-Oct-13 10:30N 65°29' E 010°54'4 7.6
2017-Oct-13 10:01N 65°33' E 010°58'4 7.7
2017-Oct-13 09:30N 65°36' E 011°01'4 8.0
2017-Oct-13 09:00N 65°40' E 011°05'4 8.0
2017-Oct-13 08:30N 65°44' E 011°08'4 8.0
2017-Oct-13 08:00N 65°47' E 011°11'29 7.6
2017-Oct-13 04:15N 66°13' E 011°43'5 9.5
2017-Oct-13 03:45N 66°14' E 011°54'2 9.6
2017-Oct-13 03:30N 66°15' E 011°60'5 9.8
2017-Oct-13 02:59N 66°17' E 012°12'5 9.9
2017-Oct-13 02:30N 66°16' E 012°23'510.0
2017-Oct-13 02:00N 66°16' E 012°36'5 9.8
2017-Oct-13 01:30N 66°19' E 012°46'610.6
2017-Oct-13 00:59N 66°22' E 012°57'611.0
2017-Oct-13 00:29N 66°27' E 012°59'510.4
2017-Oct-12 23:58N 66°33' E 012°60'4 9.5
2017-Oct-12 23:29N 66°37' E 013°04'610.9
2017-Oct-12 22:55N 66°43' E 013°10'610.6
2017-Oct-12 22:23N 66°47' E 013°18'15 2.4
2017-Oct-12 16:13N 66°49' E 013°56'0 0.0
2017-Oct-12 13:13N 66°49' E 013°56'0 0.0
2017-Oct-12 12:49N 66°49' E 013°56'0 0.0
2017-Oct-12 12:31N 66°49' E 013°56'0 0.0
2017-Oct-12 08:49N 66°49' E 013°56'0 0.0
2017-Oct-12 08:25N 66°49' E 013°56'0 0.0
2017-Oct-12 04:49N 66°49' E 013°56'0 0.0
2017-Oct-12 04:25N 66°49' E 013°56'0 0.0
2017-Oct-12 03:01N 66°49' E 013°56'0 0.0
2017-Oct-12 01:04N 66°49' E 013°56'0 0.0
2017-Oct-12 00:55N 66°49' E 013°56'0 0.0
2017-Oct-12 00:13N 66°49' E 013°56'0 0.0
2017-Oct-12 00:01N 66°49' E 013°56'0 0.0
2017-Oct-11 23:31N 66°49' E 013°56'0 0.0
2017-Oct-11 22:49N 66°49' E 013°56'0 0.0
2017-Oct-11 22:19N 66°49' E 013°56'0 0.0
2017-Oct-11 22:01N 66°49' E 013°56'0 0.0
2017-Oct-11 21:25N 66°49' E 013°56'0 0.0
2017-Oct-11 21:01N 66°49' E 013°56'0 0.0
2017-Oct-11 20:31N 66°49' E 013°56'0 0.0
2017-Oct-11 20:01N 66°49' E 013°56'0 0.0
2017-Oct-11 19:25N 66°49' E 013°56'0 0.0
2017-Oct-11 19:01N 66°49' E 013°56'0 0.0
2017-Oct-11 18:31N 66°49' E 013°56'0 0.0
2017-Oct-11 18:01N 66°49' E 013°56'0 0.0
2017-Oct-10 04:24N 66°49' E 013°56'1 1.7
2017-Oct-10 04:00N 66°48' E 013°55'611.1
2017-Oct-10 03:30N 66°49' E 013°41'612.2
2017-Oct-10 03:00N 66°48' E 013°26'612.0
2017-Oct-10 02:30N 66°45' E 013°13'612.4
2017-Oct-10 02:00N 66°39' E 013°07'612.0
2017-Oct-10 01:30N 66°33' E 013°04'4 9.1
2017-Oct-10 01:00N 66°30' E 012°59'612.3
2017-Oct-10 00:30N 66°23' E 012°59'612.1
2017-Oct-10 00:00N 66°17' E 012°56'612.3
2017-Oct-09 23:30N 66°12' E 012°51'4 8.0
2017-Oct-09 23:00N 66°10' E 012°60'713.0
2017-Oct-09 22:30N 66°13' E 013°14'612.3
2017-Oct-09 22:00N 66°15' E 013°29'612.3
2017-Oct-09 21:30N 66°15' E 013°44'612.6
2017-Oct-09 21:00N 66°17' E 013°59'3 6.3
2017-Oct-09 20:28N 66°18' E 014°07'0 0.0
2017-Oct-09 19:58N 66°18' E 014°07'0 0.0
2017-Oct-09 19:28N 66°18' E 014°07'0 0.0
2017-Oct-09 18:58N 66°18' E 014°07'0 0.0
2017-Oct-09 18:28N 66°18' E 014°07'0 0.0
2017-Oct-09 17:58N 66°18' E 014°07'0 0.0
2017-Oct-09 17:28N 66°18' E 014°07'0 0.0
2017-Oct-09 16:58N 66°18' E 014°07'0 0.0
2017-Oct-09 16:28N 66°18' E 014°07'0 0.0
2017-Oct-09 15:58N 66°18' E 014°07'0 0.0
2017-Oct-09 15:28N 66°18' E 014°07'0 0.0
2017-Oct-09 14:58N 66°18' E 014°07'0 0.0
2017-Oct-09 14:28N 66°18' E 014°07'0 0.0
2017-Oct-09 13:58N 66°18' E 014°07'0 0.0
2017-Oct-09 13:28N 66°18' E 014°07'0 0.0
2017-Oct-09 12:58N 66°18' E 014°07'0 0.0
2017-Oct-09 12:25N 66°18' E 014°07'0 0.0
2017-Oct-09 11:58N 66°18' E 014°07'0 0.0
2017-Oct-09 11:28N 66°18' E 014°07'0 0.0
2017-Oct-09 10:58N 66°18' E 014°07'0 0.0
2017-Oct-09 10:28N 66°18' E 014°07'0 0.0
2017-Oct-09 09:58N 66°18' E 014°07'0 0.0
2017-Oct-09 09:28N 66°18' E 014°07'0 0.0
2017-Oct-09 08:58N 66°18' E 014°07'0 0.0
2017-Oct-09 08:25N 66°18' E 014°07'0 0.0
2017-Oct-09 07:58N 66°18' E 014°07'0 0.0
2017-Oct-09 07:28N 66°18' E 014°07'0 0.0
2017-Oct-09 06:52N 66°18' E 014°07'0 0.0
2017-Oct-09 06:28N 66°18' E 014°07'0 0.0
2017-Oct-09 05:58N 66°18' E 014°07'0 0.0
2017-Oct-09 05:25N 66°18' E 014°07'0 0.0
2017-Oct-09 04:58N 66°18' E 014°07'0 0.0
2017-Oct-09 04:28N 66°18' E 014°07'0 0.0
2017-Oct-09 03:55N 66°18' E 014°07'0 0.0
2017-Oct-09 03:28N 66°18' E 014°07'0 0.0
2017-Oct-09 02:58N 66°18' E 014°07'0 0.0
2017-Oct-09 02:28N 66°18' E 014°07'0 0.0
2017-Oct-09 01:58N 66°18' E 014°07'0 0.0
2017-Oct-09 01:28N 66°18' E 014°07'0 0.0
2017-Oct-09 00:58N 66°18' E 014°07'0 0.0
2017-Oct-09 00:28N 66°18' E 014°07'0 0.0
2017-Oct-08 23:58N 66°18' E 014°07'0 0.0
2017-Oct-08 23:28N 66°18' E 014°07'0 0.0
2017-Oct-08 22:58N 66°18' E 014°07'0 0.0
2017-Oct-08 22:28N 66°18' E 014°07'0 0.0
2017-Oct-08 21:55N 66°18' E 014°07'0 0.0
2017-Oct-08 21:28N 66°18' E 014°07'0 0.0
2017-Oct-08 20:58N 66°18' E 014°07'  
Track history (hours):
 
Tides and Currents Weather Stations Pressure Air Temp Water Temp Dewpoint Dewpoint Depression Visibility Wind Speed Wind Dir Waves Ship Positions

Wilson Clyde

Last reported at 2017-Oct-18 20:30 UTC. Time now 2017-Oct-18 20:38 UTC.
Position N 53°05' E 004°13'.

Length 100 m; draft 5.9 m.

Type: Cargo ship. MMSI: 314187000.

Date/timePositionNaut miles runAvg speedWind from/ knotsBaromVisibWave heightAir tempDewpointWater temp
2017-Oct-18 20:30N 53°05' E 004°13'1411.2
2017-Oct-18 19:16N 53°16' E 004°27'411.0
2017-Oct-18 18:53N 53°20' E 004°30'1510.6
2017-Oct-18 17:29N 53°34' E 004°38'1910.6
2017-Oct-18 15:43N 53°51' E 004°49'277 7.4
2017-Oct-17 02:13N 58°28' E 005°02'2 8.8
2017-Oct-17 02:00N 58°30' E 005°01'4 8.4
2017-Oct-17 01:30N 58°34' E 004°59'4 7.9
2017-Oct-17 01:00N 58°38' E 004°58'3 6.7
2017-Oct-17 00:31N 58°41' E 004°56'3 5.6
2017-Oct-17 00:01N 58°44' E 004°55'3 5.3
2017-Oct-16 23:30N 58°46' E 004°54'3 6.3
2017-Oct-16 23:01N 58°49' E 004°53'3 6.8
2017-Oct-16 22:31N 58°53' E 004°52'4 8.0
2017-Oct-16 22:01N 58°56' E 004°50'5 9.0
2017-Oct-16 21:31N 59°01' E 004°48'5 9.3
2017-Oct-16 21:00N 59°05' E 004°46'74 9.1
2017-Oct-16 12:51N 60°19' E 004°27'3 8.8
2017-Oct-16 12:31N 60°22' E 004°26'17 5.4
2017-Oct-16 09:19N 60°39' E 004°20'2 7.4
2017-Oct-16 09:00N 60°41' E 004°20'4 7.3
2017-Oct-16 08:30N 60°45' E 004°20'4 7.2
2017-Oct-16 08:00N 60°49' E 004°19'4 7.1
2017-Oct-16 07:30N 60°52' E 004°18'3 6.9
2017-Oct-16 07:00N 60°56' E 004°17'3 6.8
2017-Oct-16 06:30N 60°59' E 004°17'3 6.7
2017-Oct-16 06:00N 61°02' E 004°17'3 6.4
2017-Oct-16 05:30N 61°05' E 004°18'3 6.3
2017-Oct-16 05:00N 61°09' E 004°18'3 6.2
2017-Oct-16 04:30N 61°12' E 004°18'3 6.3
2017-Oct-16 04:00N 61°15' E 004°19'3 6.5
2017-Oct-16 03:30N 61°18' E 004°18'4 7.3
2017-Oct-16 03:00N 61°22' E 004°19'15 7.6
2017-Oct-16 01:02N 61°37' E 004°21'0 6.7
2017-Oct-16 01:00N 61°37' E 004°22'3 6.1
2017-Oct-16 00:30N 61°40' E 004°24'3 5.5
2017-Oct-16 00:00N 61°42' E 004°26'3 5.2
2017-Oct-15 23:30N 61°45' E 004°28'2 4.6
2017-Oct-15 23:00N 61°47' E 004°30'2 3.9
2017-Oct-15 22:30N 61°49' E 004°32'2 3.3
2017-Oct-15 22:00N 61°50' E 004°33'2 3.2
2017-Oct-15 21:31N 61°52' E 004°34'1 2.7
2017-Oct-15 21:00N 61°53' E 004°35'1 2.7
2017-Oct-15 20:30N 61°54' E 004°36'1 2.9
2017-Oct-15 20:00N 61°55' E 004°37'2 3.3
2017-Oct-15 19:30N 61°57' E 004°39'2 3.8
2017-Oct-15 19:00N 61°59' E 004°40'2 4.1
2017-Oct-15 18:30N 62°01' E 004°42'2 4.1
2017-Oct-15 18:00N 62°02' E 004°44'2 4.0
2017-Oct-15 17:30N 62°04' E 004°45'2 3.8
2017-Oct-15 17:00N 62°06' E 004°47'2 3.6
2017-Oct-15 16:30N 62°07' E 004°49'1 2.8
2017-Oct-15 16:00N 62°09' E 004°51'1 2.9
2017-Oct-15 15:30N 62°10' E 004°53'1 2.7
2017-Oct-15 15:00N 62°11' E 004°54'3 3.3
2017-Oct-15 14:00N 62°14' E 004°58'2 4.0
2017-Oct-15 13:29N 62°15' E 005°01'3 5.4
2017-Oct-15 13:00N 62°18' E 005°04'3 6.7
2017-Oct-15 12:30N 62°21' E 005°07'4 7.1
2017-Oct-15 12:00N 62°24' E 005°11'4 7.0
2017-Oct-15 11:30N 62°27' E 005°15'4 7.4
2017-Oct-15 11:00N 62°30' E 005°20'4 7.3
2017-Oct-15 10:30N 62°32' E 005°25'4 7.4
2017-Oct-15 10:00N 62°35' E 005°31'4 7.1
2017-Oct-15 09:30N 62°37' E 005°36'3 6.7
2017-Oct-15 09:00N 62°40' E 005°42'3 6.1
2017-Oct-15 08:30N 62°42' E 005°46'3 5.1
2017-Oct-15 08:01N 62°43' E 005°50'3 5.9
2017-Oct-15 07:30N 62°46' E 005°55'3 5.6
2017-Oct-15 07:00N 62°48' E 005°59'3 4.9
2017-Oct-15 06:30N 62°49' E 006°03'2 5.1
2017-Oct-15 06:00N 62°51' E 006°07'2 4.8
2017-Oct-15 05:30N 62°53' E 006°11'2 4.8
2017-Oct-15 05:00N 62°55' E 006°14'2 4.9
2017-Oct-15 04:30N 62°56' E 006°18'2 5.0
2017-Oct-15 04:01N 62°58' E 006°22'2 4.4
2017-Oct-15 03:30N 62°59' E 006°26'2 4.4
2017-Oct-15 03:01N 63°01' E 006°29'2 3.8
2017-Oct-15 02:30N 63°02' E 006°32'2 3.3
2017-Oct-15 02:00N 63°03' E 006°35'2 3.5
2017-Oct-15 01:30N 63°05' E 006°37'2 3.2
2017-Oct-15 01:01N 63°06' E 006°40'2 3.2
2017-Oct-15 00:30N 63°07' E 006°42'2 3.1
2017-Oct-15 00:00N 63°08' E 006°45'1 2.8
2017-Oct-14 23:30N 63°09' E 006°47'2 3.6
2017-Oct-14 23:00N 63°10' E 006°50'2 3.3
2017-Oct-14 22:30N 63°12' E 006°52'1 3.0
2017-Oct-14 22:01N 63°13' E 006°54'2 3.0
2017-Oct-14 21:30N 63°14' E 006°56'1 2.3
2017-Oct-14 21:00N 63°15' E 006°58'1 2.6
2017-Oct-14 20:30N 63°16' E 006°60'1 2.3
2017-Oct-14 20:00N 63°17' E 007°01'1 2.3
2017-Oct-14 19:30N 63°18' E 007°03'1 2.5
2017-Oct-14 19:00N 63°18' E 007°05'2 3.1
2017-Oct-14 18:30N 63°20' E 007°07'2 3.5
2017-Oct-14 18:00N 63°21' E 007°10'2 3.1
2017-Oct-14 17:30N 63°22' E 007°12'1 2.9
2017-Oct-14 17:00N 63°23' E 007°14'1 2.5
2017-Oct-14 16:30N 63°24' E 007°16'1 2.4
2017-Oct-14 16:00N 63°25' E 007°18'1 2.4
2017-Oct-14 15:30N 63°26' E 007°20'1 2.4
2017-Oct-14 15:00N 63°27' E 007°21'1 2.5
2017-Oct-14 14:30N 63°28' E 007°23'1 2.5
2017-Oct-14 14:00N 63°29' E 007°25'1 2.5
2017-Oct-14 13:30N 63°30' E 007°27'1 2.8
2017-Oct-14 13:00N 63°31' E 007°29'1 2.3
2017-Oct-14 12:30N 63°32' E 007°30'1 2.7
2017-Oct-14 12:00N 63°33' E 007°32'1 2.5
2017-Oct-14 11:30N 63°34' E 007°34'1 2.6
2017-Oct-14 11:00N 63°35' E 007°36'2 3.7
2017-Oct-14 10:30N 63°36' E 007°39'2 3.4
2017-Oct-14 10:00N 63°37' E 007°41'1 3.0
2017-Oct-14 09:30N 63°39' E 007°43'1 2.6
2017-Oct-14 09:00N 63°39' E 007°45'2 3.4
2017-Oct-14 08:30N 63°41' E 007°48'2 3.9
2017-Oct-14 08:00N 63°42' E 007°50'2 3.9
2017-Oct-14 07:30N 63°44' E 007°53'2 3.9
2017-Oct-14 07:00N 63°46' E 007°56'2 3.5
2017-Oct-14 06:30N 63°47' E 007°59'2 4.1
2017-Oct-14 06:00N 63°48' E 008°02'2 3.4
2017-Oct-14 05:30N 63°49' E 008°04'2 4.0
2017-Oct-14 05:00N 63°51' E 008°07'2 3.6
2017-Oct-14 04:30N 63°52' E 008°10'2 3.7
2017-Oct-14 04:01N 63°54' E 008°13'2 3.7
2017-Oct-14 03:30N 63°55' E 008°15'2 4.4
2017-Oct-14 03:00N 63°57' E 008°19'2 4.5
2017-Oct-14 02:30N 63°58' E 008°23'3 5.1
2017-Oct-14 02:00N 63°60' E 008°27'78 6.9
2017-Oct-13 14:39N 64°60' E 010°25'1 7.7
2017-Oct-13 14:30N 65°01' E 010°26'4 7.8
2017-Oct-13 14:00N 65°04' E 010°29'4 7.7
2017-Oct-13 13:30N 65°08' E 010°33'4 7.9
2017-Oct-13 12:59N 65°12' E 010°36'4 7.5
2017-Oct-13 12:30N 65°15' E 010°40'4 7.7
2017-Oct-13 12:01N 65°19' E 010°43'4 7.7
2017-Oct-13 11:30N 65°22' E 010°47'4 7.6
2017-Oct-13 11:00N 65°26' E 010°51'4 7.5
2017-Oct-13 10:30N 65°29' E 010°54'4 7.6
2017-Oct-13 10:01N 65°33' E 010°58'4 7.7
2017-Oct-13 09:30N 65°36' E 011°01'4 8.0
2017-Oct-13 09:00N 65°40' E 011°05'4 8.0
2017-Oct-13 08:30N 65°44' E 011°08'4 8.0
2017-Oct-13 08:00N 65°47' E 011°11'29 7.6
2017-Oct-13 04:15N 66°13' E 011°43'5 9.5
2017-Oct-13 03:45N 66°14' E 011°54'2 9.6
2017-Oct-13 03:30N 66°15' E 011°60'5 9.8
2017-Oct-13 02:59N 66°17' E 012°12'5 9.9
2017-Oct-13 02:30N 66°16' E 012°23'510.0
2017-Oct-13 02:00N 66°16' E 012°36'5 9.8
2017-Oct-13 01:30N 66°19' E 012°46'610.6
2017-Oct-13 00:59N 66°22' E 012°57'611.0
2017-Oct-13 00:29N 66°27' E 012°59'510.4
2017-Oct-12 23:58N 66°33' E 012°60'4 9.5
2017-Oct-12 23:29N 66°37' E 013°04'610.9
2017-Oct-12 22:55N 66°43' E 013°10'610.6
2017-Oct-12 22:23N 66°47' E 013°18'15 2.4
2017-Oct-12 16:13N 66°49' E 013°56'0 0.0
2017-Oct-12 13:13N 66°49' E 013°56'0 0.0
2017-Oct-12 12:49N 66°49' E 013°56'0 0.0
2017-Oct-12 12:31N 66°49' E 013°56'0 0.0
2017-Oct-12 08:49N 66°49' E 013°56'0 0.0
2017-Oct-12 08:25N 66°49' E 013°56'0 0.0
2017-Oct-12 04:49N 66°49' E 013°56'0 0.0
2017-Oct-12 04:25N 66°49' E 013°56'0 0.0
2017-Oct-12 03:01N 66°49' E 013°56'0 0.0
2017-Oct-12 01:04N 66°49' E 013°56'0 0.0
2017-Oct-12 00:55N 66°49' E 013°56'0 0.0
2017-Oct-12 00:13N 66°49' E 013°56'0 0.0
2017-Oct-12 00:01N 66°49' E 013°56'0 0.0
2017-Oct-11 23:31N 66°49' E 013°56'0 0.0
2017-Oct-11 22:49N 66°49' E 013°56'0 0.0
2017-Oct-11 22:19N 66°49' E 013°56'0 0.0
2017-Oct-11 22:01N 66°49' E 013°56'0 0.0
2017-Oct-11 21:25N 66°49' E 013°56'0 0.0
2017-Oct-11 21:01N 66°49' E 013°56'0 0.0
2017-Oct-11 20:31N 66°49' E 013°56'0 0.0
2017-Oct-11 20:01N 66°49' E 013°56'0 0.0
2017-Oct-11 19:25N 66°49' E 013°56'0 0.0
2017-Oct-11 19:01N 66°49' E 013°56'0 0.0
2017-Oct-11 18:31N 66°49' E 013°56'0 0.0
2017-Oct-11 18:01N 66°49' E 013°56'0 0.0
2017-Oct-10 04:24N 66°49' E 013°56'1 1.7
2017-Oct-10 04:00N 66°48' E 013°55'611.1
2017-Oct-10 03:30N 66°49' E 013°41'612.2
2017-Oct-10 03:00N 66°48' E 013°26'612.0
2017-Oct-10 02:30N 66°45' E 013°13'612.4
2017-Oct-10 02:00N 66°39' E 013°07'612.0
2017-Oct-10 01:30N 66°33' E 013°04'4 9.1
2017-Oct-10 01:00N 66°30' E 012°59'612.3
2017-Oct-10 00:30N 66°23' E 012°59'612.1
2017-Oct-10 00:00N 66°17' E 012°56'612.3
2017-Oct-09 23:30N 66°12' E 012°51'4 8.0
2017-Oct-09 23:00N 66°10' E 012°60'713.0
2017-Oct-09 22:30N 66°13' E 013°14'612.3
2017-Oct-09 22:00N 66°15' E 013°29'612.3
2017-Oct-09 21:30N 66°15' E 013°44'612.6
2017-Oct-09 21:00N 66°17' E 013°59'3 6.3
2017-Oct-09 20:28N 66°18' E 014°07'0 0.0
2017-Oct-09 19:58N 66°18' E 014°07'0 0.0
2017-Oct-09 19:28N 66°18' E 014°07'0 0.0
2017-Oct-09 18:58N 66°18' E 014°07'0 0.0
2017-Oct-09 18:28N 66°18' E 014°07'0 0.0
2017-Oct-09 17:58N 66°18' E 014°07'0 0.0
2017-Oct-09 17:28N 66°18' E 014°07'0 0.0
2017-Oct-09 16:58N 66°18' E 014°07'0 0.0
2017-Oct-09 16:28N 66°18' E 014°07'0 0.0
2017-Oct-09 15:58N 66°18' E 014°07'0 0.0
2017-Oct-09 15:28N 66°18' E 014°07'0 0.0
2017-Oct-09 14:58N 66°18' E 014°07'0 0.0
2017-Oct-09 14:28N 66°18' E 014°07'0 0.0
2017-Oct-09 13:58N 66°18' E 014°07'0 0.0
2017-Oct-09 13:28N 66°18' E 014°07'0 0.0
2017-Oct-09 12:58N 66°18' E 014°07'0 0.0
2017-Oct-09 12:25N 66°18' E 014°07'0 0.0
2017-Oct-09 11:58N 66°18' E 014°07'0 0.0
2017-Oct-09 11:28N 66°18' E 014°07'0 0.0
2017-Oct-09 10:58N 66°18' E 014°07'0 0.0
2017-Oct-09 10:28N 66°18' E 014°07'0 0.0
2017-Oct-09 09:58N 66°18' E 014°07'0 0.0
2017-Oct-09 09:28N 66°18' E 014°07'0 0.0
2017-Oct-09 08:58N 66°18' E 014°07'0 0.0
2017-Oct-09 08:25N 66°18' E 014°07'0 0.0
2017-Oct-09 07:58N 66°18' E 014°07'0 0.0
2017-Oct-09 07:28N 66°18' E 014°07'0 0.0
2017-Oct-09 06:52N 66°18' E 014°07'0 0.0
2017-Oct-09 06:28N 66°18' E 014°07'0 0.0
2017-Oct-09 05:58N 66°18' E 014°07'0 0.0
2017-Oct-09 05:25N 66°18' E 014°07'0 0.0
2017-Oct-09 04:58N 66°18' E 014°07'0 0.0
2017-Oct-09 04:28N 66°18' E 014°07'0 0.0
2017-Oct-09 03:55N 66°18' E 014°07'0 0.0
2017-Oct-09 03:28N 66°18' E 014°07'0 0.0
2017-Oct-09 02:58N 66°18' E 014°07'0 0.0
2017-Oct-09 02:28N 66°18' E 014°07'0 0.0
2017-Oct-09 01:58N 66°18' E 014°07'0 0.0
2017-Oct-09 01:28N 66°18' E 014°07'0 0.0
2017-Oct-09 00:58N 66°18' E 014°07'0 0.0
2017-Oct-09 00:28N 66°18' E 014°07'0 0.0
2017-Oct-08 23:58N 66°18' E 014°07'0 0.0
2017-Oct-08 23:28N 66°18' E 014°07'0 0.0
2017-Oct-08 22:58N 66°18' E 014°07'0 0.0
2017-Oct-08 22:28N 66°18' E 014°07'0 0.0
2017-Oct-08 21:55N 66°18' E 014°07'0 0.0
2017-Oct-08 21:28N 66°18' E 014°07'0 0.0
2017-Oct-08 20:58N 66°18' E 014°07'  

Dump ship's entire track history